sensor_id;sensor_type;location;lat;lon;timestamp;pressure;altitude;pressure_sealevel;temperature;humidity
60228;BME280;46091;46.512;6.626;2023-02-23T06:27:20;96562.41;;;10.95;75.78
60228;BME280;46091;46.512;6.626;2023-02-23T06:29:22;96557.75;;;11.24;75.45
60228;BME280;46091;46.512;6.626;2023-02-23T06:31:25;96555.72;;;11.46;74.64
60228;BME280;46091;46.512;6.626;2023-02-23T06:33:28;96566.09;;;11.60;74.30
60228;BME280;46091;46.512;6.626;2023-02-23T06:35:31;96562.63;;;11.73;74.07
60228;BME280;46091;46.512;6.626;2023-02-23T06:37:34;96569.16;;;11.84;73.89
60228;BME280;46091;46.512;6.626;2023-02-23T06:39:37;96564.84;;;11.96;73.70
60228;BME280;46091;46.512;6.626;2023-02-23T06:41:42;96561.41;;;12.02;73.36
60228;BME280;46091;46.512;6.626;2023-02-23T06:43:46;96558.91;;;12.07;73.48
60228;BME280;46091;46.512;6.626;2023-02-23T06:45:49;96562.97;;;12.10;73.30
60228;BME280;46091;46.512;6.626;2023-02-23T06:47:52;96563.63;;;12.12;73.25
60228;BME280;46091;46.512;6.626;2023-02-23T06:49:55;96566.66;;;12.15;73.22
60228;BME280;46091;46.512;6.626;2023-02-23T06:52:00;96563.56;;;12.18;73.13
60228;BME280;46091;46.512;6.626;2023-02-23T06:54:03;96565.41;;;12.24;72.63
60228;BME280;46091;46.512;6.626;2023-02-23T06:56:06;96560.09;;;12.24;72.58
60228;BME280;46091;46.512;6.626;2023-02-23T06:58:11;96564.56;;;12.31;72.42
60228;BME280;46091;46.512;6.626;2023-02-23T07:00:17;96567.81;;;12.33;72.33
60228;BME280;46091;46.512;6.626;2023-02-23T07:02:20;96567.41;;;12.36;72.36
60228;BME280;46091;46.512;6.626;2023-02-23T07:04:23;96569.41;;;12.40;72.25
60228;BME280;46091;46.512;6.626;2023-02-23T07:06:26;96570.84;;;12.43;72.06
60228;BME280;46091;46.512;6.626;2023-02-23T07:08:29;96571.03;;;12.48;71.85
60228;BME280;46091;46.512;6.626;2023-02-23T07:10:32;96579.78;;;12.48;72.03
60228;BME280;46091;46.512;6.626;2023-02-23T07:12:35;96583.25;;;12.49;72.07
60228;BME280;46091;46.512;6.626;2023-02-23T07:14:38;96574.28;;;12.50;71.72
60228;BME280;46091;46.512;6.626;2023-02-23T07:16:43;96576.34;;;12.48;71.94
60228;BME280;46091;46.512;6.626;2023-02-23T07:18:46;96587.31;;;12.51;71.44
60228;BME280;46091;46.512;6.626;2023-02-23T07:20:48;96581.81;;;12.53;71.50
60228;BME280;46091;46.512;6.626;2023-02-23T07:22:52;96584.25;;;12.54;71.58
60228;BME280;46091;46.512;6.626;2023-02-23T07:24:55;96588.53;;;12.56;71.26
60228;BME280;46091;46.512;6.626;2023-02-23T07:26:58;96588.53;;;12.56;71.42
60228;BME280;46091;46.512;6.626;2023-02-23T07:29:01;96586.09;;;12.54;71.41
60228;BME280;46091;46.512;6.626;2023-02-23T07:31:04;96580.78;;;12.54;71.21
60228;BME280;46091;46.512;6.626;2023-02-23T07:33:09;96582.41;;;12.55;71.10
60228;BME280;46091;46.512;6.626;2023-02-23T07:35:11;96584.03;;;12.56;71.17
60228;BME280;46091;46.512;6.626;2023-02-23T07:37:14;96588.13;;;12.52;71.12
60228;BME280;46091;46.512;6.626;2023-02-23T07:39:18;96584.66;;;12.51;70.93
60228;BME280;46091;46.512;6.626;2023-02-23T07:41:21;96585.28;;;12.53;71.14
60228;BME280;46091;46.512;6.626;2023-02-23T07:43:24;96584.66;;;12.58;70.96
60228;BME280;46091;46.512;6.626;2023-02-23T07:45:27;96589.34;;;12.56;70.82
60228;BME280;46091;46.512;6.626;2023-02-23T07:47:30;96591.19;;;12.56;70.89
60228;BME280;46091;46.512;6.626;2023-02-23T07:49:34;96582.84;;;12.52;70.51
60228;BME280;46091;46.512;6.626;2023-02-23T07:51:38;96575.91;;;12.51;70.48
60228;BME280;46091;46.512;6.626;2023-02-23T07:53:42;96576.72;;;12.51;70.42
60228;BME280;46091;46.512;6.626;2023-02-23T07:55:45;96584.88;;;12.50;70.60
60228;BME280;46091;46.512;6.626;2023-02-23T07:57:48;96581.63;;;12.48;70.62
60228;BME280;46091;46.512;6.626;2023-02-23T07:59:51;96583.69;;;12.46;70.41
60228;BME280;46091;46.512;6.626;2023-02-23T08:01:53;96580.00;;;12.47;70.57
60228;BME280;46091;46.512;6.626;2023-02-23T08:03:57;96586.72;;;12.49;70.16
60228;BME280;46091;46.512;6.626;2023-02-23T08:06:01;96579.16;;;12.53;70.43
60228;BME280;46091;46.512;6.626;2023-02-23T08:08:04;96595.25;;;12.58;69.95
60228;BME280;46091;46.512;6.626;2023-02-23T08:10:08;96586.06;;;12.61;69.86
60228;BME280;46091;46.512;6.626;2023-02-23T08:12:12;96593.38;;;12.65;69.85
60228;BME280;46091;46.512;6.626;2023-02-23T08:14:15;96583.59;;;12.66;69.99
60228;BME280;46091;46.512;6.626;2023-02-23T08:16:22;96588.69;;;12.67;69.62
60228;BME280;46091;46.512;6.626;2023-02-23T08:18:25;96585.00;;;12.68;69.73
60228;BME280;46091;46.512;6.626;2023-02-23T08:20:28;96581.34;;;12.69;69.55
60228;BME280;46091;46.512;6.626;2023-02-23T08:22:33;96584.00;;;12.69;69.47
60228;BME280;46091;46.512;6.626;2023-02-23T08:24:49;96582.97;;;12.70;69.66
60228;BME280;46091;46.512;6.626;2023-02-23T08:26:53;96583.94;;;12.76;69.38
60228;BME280;46091;46.512;6.626;2023-02-23T08:28:56;96584.53;;;12.78;69.40
60228;BME280;46091;46.512;6.626;2023-02-23T08:30:59;96588.63;;;12.80;69.20
60228;BME280;46091;46.512;6.626;2023-02-23T08:33:02;96586.38;;;12.84;69.12
60228;BME280;46091;46.512;6.626;2023-02-23T08:35:06;96581.66;;;12.86;69.23
60228;BME280;46091;46.512;6.626;2023-02-23T08:37:11;96583.50;;;12.86;68.87
60228;BME280;46091;46.512;6.626;2023-02-23T08:39:16;96586.38;;;12.84;69.19
60228;BME280;46091;46.512;6.626;2023-02-23T08:41:19;96581.88;;;12.85;68.89
60228;BME280;46091;46.512;6.626;2023-02-23T08:43:22;96582.09;;;12.83;69.00
60228;BME280;46091;46.512;6.626;2023-02-23T08:45:25;96581.50;;;12.81;68.81
60228;BME280;46091;46.512;6.626;2023-02-23T08:47:30;96573.53;;;12.81;68.89
60228;BME280;46091;46.512;6.626;2023-02-23T08:49:34;96579.44;;;12.83;68.85
60228;BME280;46091;46.512;6.626;2023-02-23T08:51:37;96576.56;;;12.85;68.73
60228;BME280;46091;46.512;6.626;2023-02-23T08:53:41;96574.50;;;12.87;68.75
60228;BME280;46091;46.512;6.626;2023-02-23T08:55:46;96577.75;;;12.89;68.61
60228;BME280;46091;46.512;6.626;2023-02-23T08:57:49;96568.16;;;12.94;68.48
60228;BME280;46091;46.512;6.626;2023-02-23T08:59:51;96571.63;;;12.95;68.67
60228;BME280;46091;46.512;6.626;2023-02-23T09:01:54;96565.06;;;12.97;68.30
60228;BME280;46091;46.512;6.626;2023-02-23T09:03:58;96567.50;;;12.99;68.13
60228;BME280;46091;46.512;6.626;2023-02-23T09:06:06;96567.06;;;13.02;68.37
60228;BME280;46091;46.512;6.626;2023-02-23T09:08:10;96565.19;;;13.09;68.21
60228;BME280;46091;46.512;6.626;2023-02-23T09:10:18;96559.44;;;13.12;68.03
60228;BME280;46091;46.512;6.626;2023-02-23T09:12:25;96561.69;;;13.15;68.06
60228;BME280;46091;46.512;6.626;2023-02-23T09:14:29;96570.06;;;13.19;67.97
60228;BME280;46091;46.512;6.626;2023-02-23T09:16:33;96566.97;;;13.22;67.78
60228;BME280;46091;46.512;6.626;2023-02-23T09:18:36;96569.00;;;13.26;67.51
60228;BME280;46091;46.512;6.626;2023-02-23T09:20:40;96568.78;;;13.28;67.54
60228;BME280;46091;46.512;6.626;2023-02-23T09:22:44;96571.00;;;13.31;67.66
60228;BME280;46091;46.512;6.626;2023-02-23T09:24:49;96573.00;;;13.35;67.15
60228;BME280;46091;46.512;6.626;2023-02-23T09:26:52;96573.00;;;13.35;67.21
60228;BME280;46091;46.512;6.626;2023-02-23T09:28:58;96575.66;;;13.35;67.33
60228;BME280;46091;46.512;6.626;2023-02-23T09:31:04;96575.22;;;13.38;67.25
60228;BME280;46091;46.512;6.626;2023-02-23T09:33:08;96572.34;;;13.40;67.09
60228;BME280;46091;46.512;6.626;2023-02-23T09:35:12;96567.84;;;13.40;67.16
60228;BME280;46091;46.512;6.626;2023-02-23T09:37:18;96570.50;;;13.40;67.28
60228;BME280;46091;46.512;6.626;2023-02-23T09:39:21;96581.94;;;13.41;67.06
60228;BME280;46091;46.512;6.626;2023-02-23T09:41:53;96575.59;;;13.42;66.80
60228;BME280;46091;46.512;6.626;2023-02-23T09:44:08;96580.47;;;13.45;66.67
60228;BME280;46091;46.512;6.626;2023-02-23T09:46:21;96579.44;;;13.46;66.80
60228;BME280;46091;46.512;6.626;2023-02-23T09:48:30;96588.44;;;13.45;66.81
60228;BME280;46091;46.512;6.626;2023-02-23T09:50:38;96580.47;;;13.45;66.40
60228;BME280;46091;46.512;6.626;2023-02-23T09:52:46;96588.06;;;13.42;66.61
60228;BME280;46091;46.512;6.626;2023-02-23T09:54:50;96582.53;;;13.43;66.35
60228;BME280;46091;46.512;6.626;2023-02-23T09:56:54;96587.63;;;13.45;66.43
60228;BME280;46091;46.512;6.626;2023-02-23T09:58:59;96583.94;;;13.46;66.10
60228;BME280;46091;46.512;6.626;2023-02-23T10:01:32;96587.63;;;13.45;66.12
60228;BME280;46091;46.512;6.626;2023-02-23T10:03:49;96590.88;;;13.47;66.02
60228;BME280;46091;46.512;6.626;2023-02-23T10:05:56;96588.84;;;13.49;66.05
60228;BME280;46091;46.512;6.626;2023-02-23T10:08:05;96588.84;;;13.49;65.93
60228;BME280;46091;46.512;6.626;2023-02-23T10:10:18;96587.19;;;13.48;65.65
60228;BME280;46091;46.512;6.626;2023-02-23T10:12:29;96585.16;;;13.50;65.83
60228;BME280;46091;46.512;6.626;2023-02-23T10:14:50;96572.47;;;13.52;65.49
60228;BME280;46091;46.512;6.626;2023-02-23T10:17:05;96569.38;;;13.55;65.39
60228;BME280;46091;46.512;6.626;2023-02-23T10:19:14;96574.09;;;13.53;65.44
60228;BME280;46091;46.512;6.626;2023-02-23T10:21:24;96561.84;;;13.52;65.33
60228;BME280;46091;46.512;6.626;2023-02-23T10:23:40;96572.84;;;13.55;65.40
60228;BME280;46091;46.512;6.626;2023-02-23T10:25:47;96562.00;;;13.57;65.21
60228;BME280;46091;46.512;6.626;2023-02-23T10:27:51;96567.91;;;13.59;65.30
60228;BME280;46091;46.512;6.626;2023-02-23T10:30:00;96560.56;;;13.61;65.04
60228;BME280;46091;46.512;6.626;2023-02-23T10:32:14;96562.53;;;13.65;65.09
60228;BME280;46091;46.512;6.626;2023-02-23T10:34:22;96559.66;;;13.67;65.01
60228;BME280;46091;46.512;6.626;2023-02-23T10:36:34;96563.13;;;13.67;64.79
60228;BME280;46091;46.512;6.626;2023-02-23T10:38:37;96569.84;;;13.70;64.61
60228;BME280;46091;46.512;6.626;2023-02-23T10:40:40;96561.47;;;13.73;64.74
60228;BME280;46091;46.512;6.626;2023-02-23T10:42:44;96562.88;;;13.76;64.70
60228;BME280;46091;46.512;6.626;2023-02-23T10:44:47;96563.69;;;13.76;64.57
60228;BME280;46091;46.512;6.626;2023-02-23T10:46:53;96562.41;;;13.79;64.60
60228;BME280;46091;46.512;6.626;2023-02-23T10:48:57;96557.50;;;13.82;64.30
60228;BME280;46091;46.512;6.626;2023-02-23T10:51:01;96568.72;;;13.84;64.57
60228;BME280;46091;46.512;6.626;2023-02-23T10:53:12;96568.72;;;13.84;64.41
60228;BME280;46091;46.512;6.626;2023-02-23T10:55:23;96568.72;;;13.84;64.24
60228;BME280;46091;46.512;6.626;2023-02-23T10:57:29;96562.38;;;13.85;64.06
60228;BME280;46091;46.512;6.626;2023-02-23T10:59:34;96561.91;;;13.88;64.18
60228;BME280;46091;46.512;6.626;2023-02-23T11:01:38;96561.09;;;13.88;64.02
60228;BME280;46091;46.512;6.626;2023-02-23T11:04:16;96551.50;;;13.87;63.95
60228;BME280;46091;46.512;6.626;2023-02-23T11:06:29;96559.25;;;13.88;63.87
60228;BME280;46091;46.512;6.626;2023-02-23T11:08:34;96556.16;;;13.91;64.10
60228;BME280;46091;46.512;6.626;2023-02-23T11:10:38;96562.09;;;13.93;64.06
60228;BME280;46091;46.512;6.626;2023-02-23T11:12:41;96555.13;;;13.92;63.83
60228;BME280;46091;46.512;6.626;2023-02-23T11:14:44;96561.06;;;13.94;63.93
60228;BME280;46091;46.512;6.626;2023-02-23T11:16:47;96553.28;;;13.93;63.80
60228;BME280;46091;46.512;6.626;2023-02-23T11:18:52;96552.28;;;13.94;63.77
60228;BME280;46091;46.512;6.626;2023-02-23T11:20:58;96551.25;;;13.95;63.56
60228;BME280;46091;46.512;6.626;2023-02-23T11:23:08;96551.25;;;13.95;63.67
60228;BME280;46091;46.512;6.626;2023-02-23T11:25:20;96550.44;;;13.94;63.50
60228;BME280;46091;46.512;6.626;2023-02-23T11:27:27;96542.22;;;13.96;63.50
60228;BME280;46091;46.512;6.626;2023-02-23T11:29:33;96551.25;;;13.95;63.37
60228;BME280;46091;46.512;6.626;2023-02-23T11:31:37;96549.41;;;13.95;63.24
60228;BME280;46091;46.512;6.626;2023-02-23T11:33:41;96539.81;;;13.94;63.27
60228;BME280;46091;46.512;6.626;2023-02-23T11:35:44;96539.00;;;13.94;63.23
60228;BME280;46091;46.512;6.626;2023-02-23T11:37:49;96537.34;;;13.93;62.91
60228;BME280;46091;46.512;6.626;2023-02-23T11:39:54;96544.06;;;13.95;63.15
60228;BME280;46091;46.512;6.626;2023-02-23T11:42:16;96539.81;;;13.94;62.96
60228;BME280;46091;46.512;6.626;2023-02-23T11:44:21;96537.94;;;13.95;62.83
60228;BME280;46091;46.512;6.626;2023-02-23T11:46:25;96530.78;;;13.95;62.73
60228;BME280;46091;46.512;6.626;2023-02-23T11:48:32;96537.72;;;13.96;62.84
60228;BME280;46091;46.512;6.626;2023-02-23T11:50:36;96534.69;;;13.93;62.77
60228;BME280;46091;46.512;6.626;2023-02-23T11:52:41;96525.69;;;13.94;62.64
60228;BME280;46091;46.512;6.626;2023-02-23T11:54:51;96524.66;;;13.95;62.50
60228;BME280;46091;46.512;6.626;2023-02-23T11:56:54;96521.19;;;13.94;62.45
60228;BME280;46091;46.512;6.626;2023-02-23T11:59:00;96522.22;;;13.93;62.52
60228;BME280;46091;46.512;6.626;2023-02-23T12:01:06;96517.72;;;13.94;62.36
60228;BME280;46091;46.512;6.626;2023-02-23T12:03:19;96517.91;;;13.92;62.47
60228;BME280;46091;46.512;6.626;2023-02-23T12:05:26;96518.16;;;13.91;62.42
60228;BME280;46091;46.512;6.626;2023-02-23T12:07:35;96517.91;;;13.92;62.51
60228;BME280;46091;46.512;6.626;2023-02-23T12:09:44;96508.72;;;13.95;62.30
60228;BME280;46091;46.512;6.626;2023-02-23T12:11:53;96507.91;;;13.94;62.20
60228;BME280;46091;46.512;6.626;2023-02-23T12:14:06;96496.81;;;13.97;62.27
60228;BME280;46091;46.512;6.626;2023-02-23T12:16:17;96501.69;;;14.01;62.38
60228;BME280;46091;46.512;6.626;2023-02-23T12:18:36;96497.19;;;14.01;61.97
60228;BME280;46091;46.512;6.626;2023-02-23T12:20:43;96498.81;;;14.02;62.21
60228;BME280;46091;46.512;6.626;2023-02-23T12:22:50;96493.88;;;14.06;62.00
60228;BME280;46091;46.512;6.626;2023-02-23T12:24:58;96492.03;;;14.06;62.11
60228;BME280;46091;46.512;6.626;2023-02-23T12:27:10;96495.88;;;14.10;62.18
60228;BME280;46091;46.512;6.626;2023-02-23T12:29:20;96496.22;;;14.14;61.93
60228;BME280;46091;46.512;6.626;2023-02-23T12:31:27;96490.09;;;14.13;61.92
60228;BME280;46091;46.512;6.626;2023-02-23T12:33:35;96486.41;;;14.14;61.69
60228;BME280;46091;46.512;6.626;2023-02-23T12:35:44;96497.84;;;14.15;61.63
60228;BME280;46091;46.512;6.626;2023-02-23T12:37:52;96485.59;;;14.14;61.91
60228;BME280;46091;46.512;6.626;2023-02-23T12:40:03;96489.88;;;14.15;61.99
60228;BME280;46091;46.512;6.626;2023-02-23T12:42:14;96494.19;;;14.16;61.79
60228;BME280;46091;46.512;6.626;2023-02-23T12:44:30;96492.91;;;14.18;61.67
60228;BME280;46091;46.512;6.626;2023-02-23T12:46:38;96485.16;;;14.17;61.65
60228;BME280;46091;46.512;6.626;2023-02-23T12:48:55;96486.78;;;14.18;61.73
60228;BME280;46091;46.512;6.626;2023-02-23T12:51:00;96484.72;;;14.20;61.73
60228;BME280;46091;46.512;6.626;2023-02-23T12:53:11;96481.81;;;14.21;61.73
60228;BME280;46091;46.512;6.626;2023-02-23T12:55:27;96481.13;;;14.26;61.33
60228;BME280;46091;46.512;6.626;2023-02-23T12:57:37;96483.00;;;14.25;61.44
60228;BME280;46091;46.512;6.626;2023-02-23T13:00:06;96474.88;;;14.20;61.66
60228;BME280;46091;46.512;6.626;2023-02-23T13:02:29;96474.44;;;14.23;61.39
60228;BME280;46091;46.512;6.626;2023-02-23T13:05:10;96474.44;;;14.23;61.40
60228;BME280;46091;46.512;6.626;2023-02-23T13:07:20;96469.34;;;14.22;61.36
60228;BME280;46091;46.512;6.626;2023-02-23T13:09:33;96465.66;;;14.23;61.44
60228;BME280;46091;46.512;6.626;2023-02-23T13:12:06;96462.53;;;14.26;61.49
60228;BME280;46091;46.512;6.626;2023-02-23T13:14:18;96469.50;;;14.27;61.25
60228;BME280;46091;46.512;6.626;2023-02-23T13:16:27;96460.47;;;14.28;61.15
60228;BME280;46091;46.512;6.626;2023-02-23T13:18:36;96466.84;;;14.27;61.31
60228;BME280;46091;46.512;6.626;2023-02-23T13:20:42;96470.50;;;14.26;61.35
60228;BME280;46091;46.512;6.626;2023-02-23T13:22:51;96451.91;;;14.26;61.29
60228;BME280;46091;46.512;6.626;2023-02-23T13:24:59;96458.88;;;14.27;61.34
60228;BME280;46091;46.512;6.626;2023-02-23T13:27:11;96457.00;;;14.27;60.94
60228;BME280;46091;46.512;6.626;2023-02-23T13:29:28;96461.28;;;14.28;61.01
60228;BME280;46091;46.512;6.626;2023-02-23T13:31:36;96456.78;;;14.29;60.98
60228;BME280;46091;46.512;6.626;2023-02-23T13:33:40;96459.00;;;14.32;60.80
60228;BME280;46091;46.512;6.626;2023-02-23T13:35:45;96463.50;;;14.32;61.10
60228;BME280;46091;46.512;6.626;2023-02-23T13:37:50;96461.66;;;14.32;61.05
60228;BME280;46091;46.512;6.626;2023-02-23T13:39:59;96462.22;;;14.34;60.95
60228;BME280;46091;46.512;6.626;2023-02-23T13:42:14;96464.88;;;14.34;60.92
60228;BME280;46091;46.512;6.626;2023-02-23T13:44:25;96470.19;;;14.34;60.80
60228;BME280;46091;46.512;6.626;2023-02-23T13:46:39;96463.84;;;14.35;60.78
60228;BME280;46091;46.512;6.626;2023-02-23T13:48:50;96467.31;;;14.36;60.92
60228;BME280;46091;46.512;6.626;2023-02-23T13:51:02;96467.53;;;14.34;60.71
60228;BME280;46091;46.512;6.626;2023-02-23T13:53:27;96460.38;;;14.35;60.68
60228;BME280;46091;46.512;6.626;2023-02-23T13:55:46;96470.38;;;14.39;60.79
60228;BME280;46091;46.512;6.626;2023-02-23T13:57:52;96462.97;;;14.41;60.69
60228;BME280;46091;46.512;6.626;2023-02-23T13:59:59;96452.31;;;14.41;60.50
60228;BME280;46091;46.512;6.626;2023-02-23T14:02:19;96454.97;;;14.41;60.42
60228;BME280;46091;46.512;6.626;2023-02-23T14:04:25;96450.47;;;14.42;60.31
60228;BME280;46091;46.512;6.626;2023-02-23T14:06:30;96449.66;;;14.41;60.49
60228;BME280;46091;46.512;6.626;2023-02-23T14:08:37;96446.56;;;14.44;60.37
60228;BME280;46091;46.512;6.626;2023-02-23T14:10:42;96446.69;;;14.49;60.37
60228;BME280;46091;46.512;6.626;2023-02-23T14:13:09;96447.53;;;14.50;60.17
60228;BME280;46091;46.512;6.626;2023-02-23T14:15:43;96442.56;;;14.53;60.17
60228;BME280;46091;46.512;6.626;2023-02-23T14:17:55;96441.75;;;14.53;60.09
60228;BME280;46091;46.512;6.626;2023-02-23T14:20:05;96432.50;;;14.55;59.76
60228;BME280;46091;46.512;6.626;2023-02-23T14:22:30;96427.41;;;14.54;59.86
60228;BME280;46091;46.512;6.626;2023-02-23T14:24:35;96435.75;;;14.57;59.88
60228;BME280;46091;46.512;6.626;2023-02-23T14:26:41;96431.00;;;14.60;59.60
60228;BME280;46091;46.512;6.626;2023-02-23T14:28:45;96433.47;;;14.61;59.60
60228;BME280;46091;46.512;6.626;2023-02-23T14:31:19;96425.25;;;14.63;59.34
60228;BME280;46091;46.512;6.626;2023-02-23T14:33:34;96426.66;;;14.65;59.27
60228;BME280;46091;46.512;6.626;2023-02-23T14:35:43;96428.03;;;14.68;59.38
60228;BME280;46091;46.512;6.626;2023-02-23T14:37:53;96417.97;;;14.70;59.34
60228;BME280;46091;46.512;6.626;2023-02-23T14:40:09;96423.44;;;14.75;59.04
60228;BME280;46091;46.512;6.626;2023-02-23T14:42:20;96424.00;;;14.77;59.06
60228;BME280;46091;46.512;6.626;2023-02-23T14:44:25;96409.44;;;14.79;59.11
60228;BME280;46091;46.512;6.626;2023-02-23T14:46:35;96412.91;;;14.80;58.78
60228;BME280;46091;46.512;6.626;2023-02-23T14:48:41;96411.28;;;14.79;58.83
60228;BME280;46091;46.512;6.626;2023-02-23T14:50:45;96398.22;;;14.77;58.64
60228;BME280;46091;46.512;6.626;2023-02-23T14:52:49;96407.00;;;14.78;58.78
60228;BME280;46091;46.512;6.626;2023-02-23T14:55:15;96404.34;;;14.78;58.82
60228;BME280;46091;46.512;6.626;2023-02-23T14:57:24;96396.94;;;14.80;58.79
60228;BME280;46091;46.512;6.626;2023-02-23T14:59:29;96403.06;;;14.80;58.69
60228;BME280;46091;46.512;6.626;2023-02-23T15:01:38;96397.50;;;14.82;58.73
60228;BME280;46091;46.512;6.626;2023-02-23T15:03:41;96403.22;;;14.85;58.43
60228;BME280;46091;46.512;6.626;2023-02-23T15:05:46;96403.22;;;14.85;58.53
60228;BME280;46091;46.512;6.626;2023-02-23T15:07:52;96402.97;;;14.87;58.31
60228;BME280;46091;46.512;6.626;2023-02-23T15:09:58;96402.97;;;14.87;58.19
60228;BME280;46091;46.512;6.626;2023-02-23T15:12:10;96401.94;;;14.88;58.33
60228;BME280;46091;46.512;6.626;2023-02-23T15:14:15;96401.13;;;14.88;58.27
60228;BME280;46091;46.512;6.626;2023-02-23T15:16:30;96391.28;;;14.88;58.35
60228;BME280;46091;46.512;6.626;2023-02-23T15:18:38;96397.66;;;14.87;58.11
60228;BME280;46091;46.512;6.626;2023-02-23T15:20:42;96393.13;;;14.88;58.08
60228;BME280;46091;46.512;6.626;2023-02-23T15:22:50;96388.63;;;14.88;58.33
60228;BME280;46091;46.512;6.626;2023-02-23T15:24:57;96392.91;;;14.89;58.22
60228;BME280;46091;46.512;6.626;2023-02-23T15:27:00;96388.16;;;14.91;58.04
60228;BME280;46091;46.512;6.626;2023-02-23T15:29:05;96388.16;;;14.91;58.28
60228;BME280;46091;46.512;6.626;2023-02-23T15:31:09;96395.91;;;14.93;58.08
60228;BME280;46091;46.512;6.626;2023-02-23T15:33:14;96394.06;;;14.93;57.96
60228;BME280;46091;46.512;6.626;2023-02-23T15:35:25;96392.00;;;14.95;57.97
60228;BME280;46091;46.512;6.626;2023-02-23T15:37:33;96392.00;;;14.95;58.09
60228;BME280;46091;46.512;6.626;2023-02-23T15:39:40;96388.28;;;14.96;58.17
60228;BME280;46091;46.512;6.626;2023-02-23T15:41:46;96391.53;;;14.98;57.81
60228;BME280;46091;46.512;6.626;2023-02-23T15:43:51;96388.63;;;15.00;57.85
60228;BME280;46091;46.512;6.626;2023-02-23T15:45:55;96381.69;;;14.99;58.02
60228;BME280;46091;46.512;6.626;2023-02-23T15:48:03;96379.84;;;14.99;57.87
60228;BME280;46091;46.512;6.626;2023-02-23T15:50:13;96377.66;;;14.96;57.81
60228;BME280;46091;46.512;6.626;2023-02-23T15:52:29;96374.75;;;14.98;57.89
60228;BME280;46091;46.512;6.626;2023-02-23T15:54:49;96385.84;;;14.95;57.69
60228;BME280;46091;46.512;6.626;2023-02-23T15:56:56;96374.63;;;14.93;57.64
60228;BME280;46091;46.512;6.626;2023-02-23T15:59:02;96376.13;;;14.89;57.90
60228;BME280;46091;46.512;6.626;2023-02-23T16:01:10;96380.63;;;14.88;57.88
60228;BME280;46091;46.512;6.626;2023-02-23T16:03:22;96373.69;;;14.87;57.85
60228;BME280;46091;46.512;6.626;2023-02-23T16:05:25;96379.03;;;14.87;58.06
60228;BME280;46091;46.512;6.626;2023-02-23T16:07:40;96369.41;;;14.86;57.82
60228;BME280;46091;46.512;6.626;2023-02-23T16:09:52;96372.50;;;14.83;57.94
60228;BME280;46091;46.512;6.626;2023-02-23T16:12:00;96382.00;;;14.79;58.15
60228;BME280;46091;46.512;6.626;2023-02-23T16:14:04;96374.25;;;14.77;58.05
60228;BME280;46091;46.512;6.626;2023-02-23T16:16:16;96381.78;;;14.80;57.95
60228;BME280;46091;46.512;6.626;2023-02-23T16:18:34;96381.78;;;14.80;58.11
60228;BME280;46091;46.512;6.626;2023-02-23T16:20:41;96384.44;;;14.80;58.12
60228;BME280;46091;46.512;6.626;2023-02-23T16:22:46;96391.84;;;14.78;58.24
60228;BME280;46091;46.512;6.626;2023-02-23T16:24:58;96392.66;;;14.79;58.01
60228;BME280;46091;46.512;6.626;2023-02-23T16:27:03;96387.34;;;14.79;58.15
60228;BME280;46091;46.512;6.626;2023-02-23T16:29:09;96389.19;;;14.78;57.88
60228;BME280;46091;46.512;6.626;2023-02-23T16:31:22;96393.34;;;14.74;58.00
60228;BME280;46091;46.512;6.626;2023-02-23T16:33:30;96391.94;;;14.72;58.03
60228;BME280;46091;46.512;6.626;2023-02-23T16:35:36;96390.31;;;14.71;58.24
60228;BME280;46091;46.512;6.626;2023-02-23T16:37:57;96397.16;;;14.67;58.38
60228;BME280;46091;46.512;6.626;2023-02-23T16:40:00;96398.19;;;14.66;58.39
60228;BME280;46091;46.512;6.626;2023-02-23T16:42:05;96394.16;;;14.63;58.13
60228;BME280;46091;46.512;6.626;2023-02-23T16:44:13;96391.91;;;14.60;58.18
60228;BME280;46091;46.512;6.626;2023-02-23T16:46:17;96393.19;;;14.57;58.14
60228;BME280;46091;46.512;6.626;2023-02-23T16:48:21;96386.47;;;14.55;58.29
60228;BME280;46091;46.512;6.626;2023-02-23T16:50:24;96378.16;;;14.51;58.43
60228;BME280;46091;46.512;6.626;2023-02-23T16:52:28;96379.19;;;14.50;58.34
60228;BME280;46091;46.512;6.626;2023-02-23T16:54:33;96383.34;;;14.46;58.35
60228;BME280;46091;46.512;6.626;2023-02-23T16:56:37;96380.91;;;14.45;58.37
60228;BME280;46091;46.512;6.626;2023-02-23T16:58:43;96390.72;;;14.44;58.40
60228;BME280;46091;46.512;6.626;2023-02-23T17:00:47;96387.47;;;14.42;58.51
60228;BME280;46091;46.512;6.626;2023-02-23T17:02:51;96391.97;;;14.42;58.25
60228;BME280;46091;46.512;6.626;2023-02-23T17:04:55;96388.72;;;14.40;58.30
60228;BME280;46091;46.512;6.626;2023-02-23T17:06:59;96391.59;;;14.38;58.57
60228;BME280;46091;46.512;6.626;2023-02-23T17:09:02;96395.75;;;14.34;58.56
60228;BME280;46091;46.512;6.626;2023-02-23T17:11:07;96393.56;;;14.31;58.69
60228;BME280;46091;46.512;6.626;2023-02-23T17:13:15;96398.28;;;14.29;58.66
60228;BME280;46091;46.512;6.626;2023-02-23T17:15:20;96404.03;;;14.26;58.72
60228;BME280;46091;46.512;6.626;2023-02-23T17:17:24;96409.34;;;14.26;58.45
60228;BME280;46091;46.512;6.626;2023-02-23T17:19:27;96413.06;;;14.25;58.60
60228;BME280;46091;46.512;6.626;2023-02-23T17:21:30;96404.97;;;14.20;58.66
60228;BME280;46091;46.512;6.626;2023-02-23T17:23:36;96405.41;;;14.17;58.42
60228;BME280;46091;46.512;6.626;2023-02-23T17:25:43;96409.09;;;14.16;58.84
60228;BME280;46091;46.512;6.626;2023-02-23T17:27:47;96413.81;;;14.14;58.83
60228;BME280;46091;46.512;6.626;2023-02-23T17:29:50;96424.22;;;14.15;58.67
60228;BME280;46091;46.512;6.626;2023-02-23T17:31:53;96416.84;;;14.17;58.49
60228;BME280;46091;46.512;6.626;2023-02-23T17:33:56;96418.09;;;14.15;58.68
60228;BME280;46091;46.512;6.626;2023-02-23T17:35:59;96416.69;;;14.12;58.83
60228;BME280;46091;46.512;6.626;2023-02-23T17:38:03;96416.34;;;14.09;58.67
60228;BME280;46091;46.512;6.626;2023-02-23T17:40:08;96432.28;;;14.09;58.83
60228;BME280;46091;46.512;6.626;2023-02-23T17:42:11;96425.59;;;14.06;59.05